Time;durP1;ratioP1;P1;durP2;ratioP2;P2;SDS_P1;SDS_P2;PMS_P1;PMS_P2;Temp;Humidity;BMP_temperature;BMP_pressure;BME280_temperature;BME280_humidity;BME280_pressure;Samples;Min_cycle;Max_cycle;Signal;HPM_P1;HPM_P2
2022/01/29 00:01:12;;;;;;;3.50;2.28;;;10.20;99.90;;;;;;5126740;27;20039;-60
2022/01/29 00:03:40;;;;;;;5.22;2.38;;;10.20;99.90;;;;;;5115012;27;20549;-60
2022/01/29 00:06:08;;;;;;;5.95;2.80;;;10.20;99.90;;;;;;5113494;27;20031;-60
2022/01/29 00:08:35;;;;;;;4.18;2.80;;;10.10;99.90;;;;;;5133098;27;20042;-60
2022/01/29 00:11:10;;;;;;;5.25;2.75;;;10.20;99.90;;;;;;5144172;27;20045;-59
2022/01/29 00:13:38;;;;;;;6.53;3.63;;;10.20;99.90;;;;;;5133660;27;20066;-59
2022/01/29 00:16:06;;;;;;;8.93;3.45;;;10.20;99.90;;;;;;5123837;27;20067;-59
2022/01/29 00:18:34;;;;;;;6.40;3.55;;;10.20;99.90;;;;;;5133286;27;20451;-58
2022/01/29 00:21:03;;;;;;;6.45;3.53;;;10.10;99.90;;;;;;5127647;27;20066;-60
2022/01/29 00:23:30;;;;;;;11.50;3.33;;;10.10;99.90;;;;;;5132715;27;20061;-60
2022/01/29 00:25:59;;;;;;;6.00;2.85;;;10.10;99.90;;;;;;5132319;27;20040;-60
2022/01/29 00:28:28;;;;;;;4.53;2.17;;;10.10;99.90;;;;;;5133075;27;20027;-59
2022/01/29 00:30:56;;;;;;;5.15;2.58;;;10.10;99.90;;;;;;5120290;27;20509;-59
2022/01/29 00:33:24;;;;;;;4.55;2.97;;;10.10;99.90;;;;;;5132879;27;20054;-60
2022/01/29 00:35:51;;;;;;;4.15;2.38;;;10.10;99.90;;;;;;5104891;28;20439;-59
2022/01/29 00:38:19;;;;;;;7.40;2.78;;;10.10;99.90;;;;;;5132766;27;20035;-60
2022/01/29 00:40:47;;;;;;;6.25;2.40;;;10.10;99.90;;;;;;5127038;27;20466;-59
2022/01/29 00:43:14;;;;;;;3.85;2.22;;;10.10;99.90;;;;;;5132257;27;20047;-60
2022/01/29 00:45:42;;;;;;;4.57;1.83;;;10.00;99.90;;;;;;5121686;28;20460;-60
2022/01/29 00:48:09;;;;;;;3.33;1.70;;;10.00;99.90;;;;;;5132785;28;20036;-60
2022/01/29 00:50:37;;;;;;;5.10;2.50;;;10.00;99.90;;;;;;5125566;28;20043;-60
2022/01/29 00:53:05;;;;;;;4.50;1.98;;;10.00;99.90;;;;;;5131498;28;20435;-60
2022/01/29 00:55:32;;;;;;;4.10;1.70;;;10.00;99.40;;;;;;5131621;27;20035;-60
2022/01/29 00:58:00;;;;;;;1.88;1.42;;;10.00;99.20;;;;;;5114964;28;20035;-59
2022/01/29 01:00:27;;;;;;;4.32;1.30;;;10.00;99.00;;;;;;5110369;28;20080;-60
2022/01/29 01:02:55;;;;;;;2.47;1.30;;;10.00;98.80;;;;;;5133012;28;20569;-59
2022/01/29 01:05:22;;;;;;;2.95;1.60;;;10.00;98.80;;;;;;5128823;28;20047;-59
2022/01/29 01:07:50;;;;;;;3.60;1.90;;;10.00;98.50;;;;;;5132006;28;20447;-60
2022/01/29 01:10:17;;;;;;;2.13;1.35;;;10.00;97.80;;;;;;5123314;28;20032;-60
2022/01/29 01:12:45;;;;;;;3.03;2.08;;;10.00;97.90;;;;;;5131246;28;20445;-60
2022/01/29 01:15:13;;;;;;;3.33;1.60;;;10.00;97.10;;;;;;5109471;28;20047;-59
2022/01/29 01:17:41;;;;;;;3.55;2.35;;;10.00;96.90;;;;;;5107092;28;20118;-59
2022/01/29 01:20:09;;;;;;;4.45;1.50;;;10.00;96.90;;;;;;5121167;28;20038;-59
2022/01/29 01:22:36;;;;;;;2.97;1.42;;;10.00;96.80;;;;;;5132471;28;20130;-59
2022/01/29 01:25:04;;;;;;;2.72;1.45;;;10.00;96.50;;;;;;5112702;28;20063;-59
2022/01/29 01:27:32;;;;;;;3.20;1.38;;;10.00;96.10;;;;;;5132865;28;20039;-59
2022/01/29 01:29:59;;;;;;;2.72;1.92;;;10.00;95.90;;;;;;5125253;28;20040;-59
2022/01/29 01:32:27;;;;;;;4.03;1.42;;;10.00;95.60;;;;;;5107895;28;20066;-59
2022/01/29 01:34:57;;;;;;;3.03;1.55;;;10.00;95.40;;;;;;5131381;28;20067;-59
2022/01/29 01:37:49;;;;;;;4.18;1.95;;;10.00;95.10;;;;;;5131670;28;20138;-59
2022/01/29 01:40:16;;;;;;;2.22;1.52;;;9.90;94.80;;;;;;5111725;28;20039;-59
2022/01/29 01:42:43;;;;;;;2.72;1.30;;;9.90;94.50;;;;;;5132485;28;20039;-59
2022/01/29 01:45:11;;;;;;;2.65;1.23;;;9.90;94.40;;;;;;5113598;28;20104;-59
2022/01/29 01:47:39;;;;;;;2.13;1.13;;;9.90;94.60;;;;;;5111068;28;20055;-59
2022/01/29 01:50:08;;;;;;;2.38;1.38;;;9.80;94.00;;;;;;5131993;27;20076;-61
2022/01/29 01:52:36;;;;;;;1.50;1.17;;;9.80;93.80;;;;;;5135092;27;20049;-59
2022/01/29 01:55:04;;;;;;;5.30;1.70;;;9.90;93.80;;;;;;5097010;28;20134;-60
2022/01/29 01:57:31;;;;;;;3.55;1.45;;;9.90;93.70;;;;;;5133227;27;20052;-59
2022/01/29 01:59:59;;;;;;;2.17;1.33;;;9.90;93.80;;;;;;5134919;27;20123;-59
2022/01/29 02:02:27;;;;;;;2.20;1.45;;;9.90;93.80;;;;;;5135882;27;20064;-59
2022/01/29 02:04:55;;;;;;;3.17;1.58;;;9.90;93.80;;;;;;5131434;27;20482;-59
2022/01/29 02:07:22;;;;;;;2.15;1.25;;;9.90;93.40;;;;;;5135097;27;20532;-59
2022/01/29 02:09:50;;;;;;;3.95;1.33;;;9.90;93.30;;;;;;5115220;27;20050;-59
2022/01/29 02:12:17;;;;;;;5.32;1.30;;;9.80;93.00;;;;;;5135666;27;20125;-59
2022/01/29 02:14:45;;;;;;;6.95;1.70;;;9.90;92.80;;;;;;5130156;27;20493;-59
2022/01/29 02:17:13;;;;;;;2.25;1.30;;;9.80;92.30;;;;;;5134196;27;20099;-59
2022/01/29 02:19:41;;;;;;;3.05;1.95;;;9.90;92.20;;;;;;5136054;27;20134;-59
2022/01/29 02:22:08;;;;;;;2.50;1.30;;;9.80;92.00;;;;;;5117800;27;20099;-59
2022/01/29 02:24:36;;;;;;;1.63;1.30;;;9.90;92.00;;;;;;5136717;27;20046;-59
2022/01/29 02:27:03;;;;;;;7.13;1.63;;;9.90;92.10;;;;;;5135329;27;20034;-59
2022/01/29 02:29:35;;;;;;;5.10;1.63;;;9.90;93.50;;;;;;5118064;27;20055;-59
2022/01/29 02:32:03;;;;;;;4.90;1.40;;;9.80;94.90;;;;;;5136696;27;20397;-59
2022/01/29 02:34:31;;;;;;;3.00;2.00;;;9.80;95.30;;;;;;5118428;27;20053;-60
2022/01/29 02:36:58;;;;;;;4.20;1.85;;;9.80;95.50;;;;;;5118423;27;20065;-59
2022/01/29 02:39:26;;;;;;;4.13;1.73;;;9.70;95.60;;;;;;5118886;27;20439;-59
2022/01/29 02:41:57;;;;;;;4.60;1.80;;;9.70;95.70;;;;;;5136786;27;20395;-60
2022/01/29 02:44:25;;;;;;;2.55;1.38;;;9.70;95.80;;;;;;5136567;27;20126;-60
2022/01/29 02:46:54;;;;;;;4.15;1.58;;;9.60;95.80;;;;;;5136473;27;20077;-59
2022/01/29 02:49:24;;;;;;;3.67;1.95;;;9.60;95.70;;;;;;5136479;27;20481;-59
2022/01/29 02:51:53;;;;;;;4.10;1.80;;;9.60;95.70;;;;;;5136425;27;20149;-60
2022/01/29 02:54:22;;;;;;;4.15;1.40;;;9.60;95.50;;;;;;5136392;27;20439;-59
2022/01/29 02:56:51;;;;;;;5.28;2.00;;;9.60;94.80;;;;;;5136213;27;20040;-60
2022/01/29 02:59:18;;;;;;;4.35;2.00;;;9.60;94.40;;;;;;5136139;27;20078;-60
2022/01/29 03:01:46;;;;;;;3.40;1.60;;;9.50;93.80;;;;;;5136227;27;20096;-60
2022/01/29 03:04:14;;;;;;;2.90;1.70;;;9.50;93.40;;;;;;5136204;27;20404;-60
2022/01/29 03:06:41;;;;;;;4.05;1.55;;;9.50;92.80;;;;;;5100918;27;20457;-59
2022/01/29 03:09:09;;;;;;;5.10;1.40;;;9.60;92.80;;;;;;5117922;27;20137;-59
2022/01/29 03:11:37;;;;;;;4.55;2.20;;;9.50;92.70;;;;;;5117688;27;20095;-59
2022/01/29 03:14:04;;;;;;;3.25;1.90;;;9.50;92.60;;;;;;5117777;27;20085;-59
2022/01/29 03:16:32;;;;;;;5.75;2.17;;;9.50;92.80;;;;;;5135781;27;20074;-59
2022/01/29 03:19:00;;;;;;;4.25;2.28;;;9.60;92.90;;;;;;5135972;27;20039;-58
2022/01/29 03:21:27;;;;;;;6.50;2.53;;;9.60;92.90;;;;;;5135796;27;20043;-59
2022/01/29 03:23:55;;;;;;;8.38;2.33;;;9.60;92.60;;;;;;5135702;27;20047;-58
2022/01/29 03:26:22;;;;;;;4.38;2.33;;;9.60;92.20;;;;;;5117769;27;20389;-59
2022/01/29 03:28:51;;;;;;;2.80;1.70;;;9.60;91.70;;;;;;5135621;27;20038;-59
2022/01/29 03:31:18;;;;;;;3.72;1.73;;;9.60;91.60;;;;;;5099868;27;20054;-59
2022/01/29 03:33:46;;;;;;;3.70;1.85;;;9.50;91.50;;;;;;5135422;27;20085;-59
2022/01/29 03:36:13;;;;;;;6.30;2.05;;;9.50;91.30;;;;;;5135583;27;20096;-58
2022/01/29 03:38:41;;;;;;;5.50;1.92;;;9.50;91.40;;;;;;5135367;27;20065;-59
2022/01/29 03:41:10;;;;;;;5.68;2.38;;;9.50;91.40;;;;;;5117237;27;20047;-60
2022/01/29 03:43:44;;;;;;;4.45;2.15;;;9.50;91.40;;;;;;5135387;27;20134;-59
2022/01/29 03:46:13;;;;;;;4.03;1.67;;;9.60;91.50;;;;;;5100051;27;20043;-59
2022/01/29 03:48:40;;;;;;;4.20;1.83;;;9.60;91.50;;;;;;5134930;27;20039;-60
2022/01/29 03:51:08;;;;;;;2.95;1.63;;;9.60;91.80;;;;;;5135122;27;20118;-59
2022/01/29 03:53:35;;;;;;;4.55;2.22;;;9.60;91.90;;;;;;5117058;27;20130;-60
2022/01/29 03:56:03;;;;;;;4.47;2.20;;;9.50;92.10;;;;;;5116688;27;20516;-60
2022/01/29 03:58:30;;;;;;;5.85;1.70;;;9.40;91.40;;;;;;5116844;27;20379;-59
2022/01/29 04:00:58;;;;;;;2.72;1.35;;;9.40;91.20;;;;;;5116721;27;20481;-58
2022/01/29 04:03:25;;;;;;;5.65;2.40;;;9.50;91.00;;;;;;5134901;27;20088;-59
2022/01/29 04:05:53;;;;;;;2.92;1.35;;;9.50;90.70;;;;;;5135111;27;20035;-59
2022/01/29 04:08:20;;;;;;;5.00;1.60;;;9.50;90.70;;;;;;5099956;27;20047;-59
2022/01/29 04:10:48;;;;;;;4.60;1.90;;;9.50;90.60;;;;;;5135078;27;20043;-59
2022/01/29 04:13:20;;;;;;;5.78;1.75;;;9.50;90.60;;;;;;5134259;27;20043;-59
2022/01/29 04:15:47;;;;;;;2.67;1.30;;;9.40;90.50;;;;;;5116838;27;20039;-59
2022/01/29 04:18:15;;;;;;;4.35;1.92;;;9.40;90.40;;;;;;5134547;27;20042;-59
2022/01/29 04:20:44;;;;;;;4.22;1.90;;;9.40;90.30;;;;;;5134866;27;20063;-59
2022/01/29 04:23:11;;;;;;;3.78;2.25;;;9.30;90.30;;;;;;5134676;27;20035;-59
2022/01/29 04:25:39;;;;;;;4.75;1.83;;;9.30;90.10;;;;;;5116327;27;20460;-59
2022/01/29 04:28:09;;;;;;;1.85;1.23;;;9.30;89.50;;;;;;5134508;27;20047;-59
2022/01/29 04:30:47;;;;;;;1.88;1.23;;;9.20;88.50;;;;;;5134581;27;20039;-59
2022/01/29 04:33:28;;;;;;;4.35;2.20;;;9.20;88.00;;;;;;5134770;27;20423;-59
2022/01/29 04:35:58;;;;;;;3.25;1.88;;;9.30;88.40;;;;;;5134664;27;20046;-59
2022/01/29 04:38:27;;;;;;;5.03;2.70;;;9.30;88.60;;;;;;5134434;27;20043;-59
2022/01/29 04:40:56;;;;;;;8.50;3.05;;;9.30;89.10;;;;;;5134485;27;20452;-59
2022/01/29 04:43:27;;;;;;;6.43;1.80;;;9.30;89.00;;;;;;5116485;28;20501;-59
2022/01/29 04:45:54;;;;;;;5.18;1.90;;;9.30;88.90;;;;;;5134436;28;20047;-59
2022/01/29 04:48:22;;;;;;;6.13;1.70;;;9.30;88.80;;;;;;5134369;28;20046;-59
2022/01/29 04:50:49;;;;;;;2.55;1.52;;;9.30;88.30;;;;;;5134228;28;20573;-59
2022/01/29 04:53:17;;;;;;;4.03;2.08;;;9.40;88.20;;;;;;5116240;28;20038;-59
2022/01/29 04:55:44;;;;;;;5.35;2.17;;;9.40;88.20;;;;;;5116136;28;20393;-59
2022/01/29 04:58:12;;;;;;;4.70;1.70;;;9.40;88.20;;;;;;5134619;28;20442;-59
2022/01/29 05:00:40;;;;;;;2.67;1.50;;;9.40;88.20;;;;;;5134450;28;20039;-59
2022/01/29 05:03:10;;;;;;;3.95;1.92;;;9.40;88.50;;;;;;5134302;28;20495;-59
2022/01/29 05:05:39;;;;;;;4.53;1.35;;;9.40;88.70;;;;;;5134494;28;20496;-59
2022/01/29 05:08:07;;;;;;;3.65;1.80;;;9.40;88.10;;;;;;5116070;28;20077;-59
2022/01/29 05:10:35;;;;;;;2.78;1.38;;;9.50;88.10;;;;;;5116010;28;20054;-59
2022/01/29 05:15:58;;;;;;;2.15;1.40;;;9.40;87.60;;;;;;5114958;28;20032;-59
2022/01/29 05:26:59;;;;;;;5.13;1.77;;;9.30;86.80;;;;;;5125377;27;20058;-59
2022/01/29 05:29:30;;;;;;;3.20;1.50;;;9.30;86.60;;;;;;5136623;27;20039;-60
2022/01/29 05:32:00;;;;;;;3.00;1.58;;;9.30;87.10;;;;;;5117486;27;20043;-60
2022/01/29 05:34:27;;;;;;;3.53;2.17;;;9.30;87.50;;;;;;5136248;27;20031;-59
2022/01/29 05:36:55;;;;;;;4.30;1.40;;;9.30;88.10;;;;;;5135507;27;20104;-59
2022/01/29 05:39:24;;;;;;;3.00;1.80;;;9.30;88.40;;;;;;5136850;27;20031;-59
2022/01/29 05:41:53;;;;;;;4.20;1.95;;;9.30;88.50;;;;;;5126255;27;20055;-59
2022/01/29 05:44:21;;;;;;;3.88;1.88;;;9.30;87.60;;;;;;5136733;27;20039;-59
2022/01/29 05:46:49;;;;;;;4.63;1.98;;;9.20;86.60;;;;;;5117572;27;20045;-59
2022/01/29 05:49:16;;;;;;;3.90;1.77;;;9.20;86.60;;;;;;5135900;27;20065;-59
2022/01/29 05:51:44;;;;;;;5.75;2.15;;;9.20;86.40;;;;;;5135550;27;20441;-59
2022/01/29 05:54:11;;;;;;;2.28;1.45;;;9.10;85.70;;;;;;5102230;27;20041;-59
2022/01/29 05:56:39;;;;;;;4.50;1.58;;;9.20;85.70;;;;;;5119294;27;20035;-59
2022/01/29 05:59:06;;;;;;;2.30;1.40;;;9.20;85.70;;;;;;5119741;27;20552;-59
2022/01/29 06:01:34;;;;;;;1.65;1.23;;;9.10;85.60;;;;;;5137393;27;20044;-59
2022/01/29 06:04:02;;;;;;;2.17;1.15;;;9.10;85.60;;;;;;5119556;27;20147;-59
2022/01/29 06:06:29;;;;;;;4.05;1.85;;;9.00;85.90;;;;;;5137159;27;20096;-60
2022/01/29 06:08:57;;;;;;;2.58;1.52;;;9.10;85.70;;;;;;5137395;27;20078;-59
2022/01/29 06:11:24;;;;;;;4.15;1.77;;;9.10;85.90;;;;;;5119007;27;20092;-59
2022/01/29 06:13:51;;;;;;;2.65;1.70;;;9.10;85.90;;;;;;5137247;27;20036;-59
2022/01/29 06:16:19;;;;;;;1.30;1.20;;;9.10;85.90;;;;;;5137101;27;20068;-59
2022/01/29 06:18:47;;;;;;;4.38;1.88;;;9.10;85.20;;;;;;5118692;27;20385;-59
2022/01/29 06:21:15;;;;;;;3.17;1.60;;;9.20;84.90;;;;;;5137038;27;20516;-59
2022/01/29 06:23:43;;;;;;;2.65;1.10;;;9.20;84.10;;;;;;5118938;27;20063;-59
2022/01/29 06:26:12;;;;;;;3.55;1.63;;;9.20;83.60;;;;;;5136883;27;20126;-59
2022/01/29 06:28:41;;;;;;;2.70;1.65;;;9.30;83.60;;;;;;5136830;27;20054;-59
2022/01/29 06:31:11;;;;;;;2.58;1.40;;;9.20;83.90;;;;;;5136926;27;20114;-59
2022/01/29 06:33:39;;;;;;;1.85;1.27;;;9.20;83.40;;;;;;5118330;27;20448;-59
2022/01/29 06:36:07;;;;;;;3.78;1.20;;;9.10;82.70;;;;;;5136408;27;20066;-59
2022/01/29 06:38:34;;;;;;;2.50;1.17;;;9.20;82.50;;;;;;5118538;27;20396;-59
2022/01/29 06:41:03;;;;;;;5.43;1.48;;;9.20;82.00;;;;;;5136601;27;20386;-59
2022/01/29 06:43:30;;;;;;;1.67;1.35;;;9.30;81.60;;;;;;5136593;27;20043;-59
2022/01/29 06:45:58;;;;;;;3.47;1.70;;;9.30;81.40;;;;;;5118167;27;20078;-59
2022/01/29 06:48:25;;;;;;;3.38;1.45;;;9.40;81.10;;;;;;5101156;27;20521;-59
2022/01/29 06:50:53;;;;;;;4.68;1.30;;;9.80;80.60;;;;;;5136559;27;20057;-59
2022/01/29 06:53:21;;;;;;;3.33;2.38;;;10.60;79.40;;;;;;5136165;27;20085;-59
2022/01/29 06:55:48;;;;;;;3.42;1.90;;;10.90;78.30;;;;;;5136443;27;20046;-59
2022/01/29 06:58:16;;;;;;;3.88;1.40;;;11.40;76.90;;;;;;5118084;27;20050;-60
2022/01/29 07:01:03;;;;;;;2.95;1.70;;;11.30;76.70;;;;;;5135960;27;20122;-60
2022/01/29 07:03:31;;;;;;;3.47;1.30;;;11.30;77.10;;;;;;5118044;27;20047;-58
2022/01/29 07:05:59;;;;;;;3.08;1.17;;;11.30;77.20;;;;;;5136117;27;20043;-58
2022/01/29 07:08:26;;;;;;;4.63;1.40;;;11.40;76.70;;;;;;5135735;27;20054;-59
2022/01/29 07:10:54;;;;;;;3.88;1.90;;;11.40;76.50;;;;;;5135799;27;20100;-59
2022/01/29 07:13:22;;;;;;;3.13;1.30;;;11.10;76.40;;;;;;5135597;27;20485;-59
2022/01/29 07:15:51;;;;;;;2.67;1.38;;;11.00;76.80;;;;;;5135996;27;20427;-59
2022/01/29 07:18:18;;;;;;;5.10;1.73;;;11.60;76.90;;;;;;5135714;27;20558;-60
2022/01/29 07:20:48;;;;;;;4.25;1.38;;;12.50;74.90;;;;;;5136336;27;20048;-58
2022/01/29 07:23:15;;;;;;;3.97;1.20;;;13.30;72.90;;;;;;5117742;27;20393;-58
2022/01/29 07:25:43;;;;;;;4.28;1.63;;;14.10;71.50;;;;;;5135900;27;20043;-59
2022/01/29 07:28:11;;;;;;;3.90;1.85;;;14.60;70.30;;;;;;5135706;27;20047;-59
2022/01/29 07:30:38;;;;;;;3.30;2.05;;;14.90;69.80;;;;;;5135703;27;20512;-58
2022/01/29 07:33:06;;;;;;;2.63;1.45;;;14.90;69.20;;;;;;5135312;27;20042;-58
2022/01/29 07:35:33;;;;;;;1.98;1.40;;;14.90;68.70;;;;;;5117158;27;20046;-58
2022/01/29 07:38:01;;;;;;;4.07;1.08;;;14.50;68.50;;;;;;5135547;27;20497;-58
2022/01/29 07:40:29;;;;;;;3.80;1.92;;;13.80;69.00;;;;;;5135783;27;20070;-58
2022/01/29 07:42:56;;;;;;;2.30;1.70;;;13.50;69.20;;;;;;5135216;27;20556;-58
2022/01/29 07:45:23;;;;;;;3.33;1.70;;;13.00;69.30;;;;;;5135491;27;20067;-59
2022/01/29 07:47:51;;;;;;;12.55;1.77;;;13.00;70.10;;;;;;5134487;27;20046;-59
2022/01/29 07:50:19;;;;;;;3.10;1.55;;;13.00;69.30;;;;;;5135447;27;20051;-58
2022/01/29 07:52:46;;;;;;;3.50;1.83;;;13.30;68.50;;;;;;5135301;27;20043;-58
2022/01/29 07:55:14;;;;;;;4.13;1.20;;;13.70;68.30;;;;;;5135031;27;20519;-58
2022/01/29 07:57:41;;;;;;;3.08;1.23;;;13.70;66.70;;;;;;5116991;27;20081;-58
2022/01/29 08:00:09;;;;;;;5.30;1.35;;;14.00;65.50;;;;;;5135183;27;20035;-58
2022/01/29 08:02:40;;;;;;;2.70;1.17;;;14.10;64.80;;;;;;5134986;27;20035;-57
2022/01/29 08:05:08;;;;;;;1.85;1.00;;;14.30;65.30;;;;;;5117198;27;20047;-58
2022/01/29 08:07:35;;;;;;;1.77;0.95;;;14.50;65.10;;;;;;5134870;27;20039;-58
2022/01/29 08:10:03;;;;;;;2.33;1.13;;;14.50;64.70;;;;;;5135165;27;20088;-58
2022/01/29 08:12:31;;;;;;;2.35;1.20;;;14.60;64.70;;;;;;5116870;27;20062;-58
2022/01/29 08:14:59;;;;;;;3.72;1.55;;;14.70;65.20;;;;;;5116254;27;20046;-58
2022/01/29 08:17:27;;;;;;;4.25;1.95;;;14.40;65.60;;;;;;5134680;27;20561;-58
2022/01/29 08:19:54;;;;;;;2.33;1.40;;;14.40;66.00;;;;;;5116467;27;20035;-58
2022/01/29 08:22:22;;;;;;;3.05;1.50;;;14.30;65.50;;;;;;5134687;27;20051;-58
2022/01/29 08:24:50;;;;;;;4.75;1.40;;;14.20;66.20;;;;;;5134638;27;20039;-58
2022/01/29 08:27:18;;;;;;;2.58;1.50;;;14.10;66.60;;;;;;5116677;27;20043;-58
2022/01/29 08:29:45;;;;;;;3.25;1.65;;;14.10;66.40;;;;;;5134365;27;20500;-60
2022/01/29 08:32:13;;;;;;;5.20;1.90;;;13.70;67.30;;;;;;5134701;27;20050;-59
2022/01/29 08:34:42;;;;;;;5.43;2.08;;;13.30;67.90;;;;;;5134422;27;20117;-59
2022/01/29 08:37:10;;;;;;;3.10;1.73;;;12.90;69.00;;;;;;5116291;28;20138;-59
2022/01/29 08:39:37;;;;;;;6.47;2.08;;;12.90;69.60;;;;;;5134513;27;20609;-59
2022/01/29 08:42:05;;;;;;;2.72;1.50;;;13.00;69.90;;;;;;5134398;27;20123;-58
2022/01/29 08:44:33;;;;;;;3.30;1.40;;;13.10;69.10;;;;;;5134702;27;20047;-59
2022/01/29 08:47:00;;;;;;;3.08;1.80;;;13.10;68.10;;;;;;5116488;28;20047;-58
2022/01/29 08:49:28;;;;;;;4.07;1.70;;;13.20;67.70;;;;;;5134165;27;20046;-58
2022/01/29 08:51:57;;;;;;;3.88;1.88;;;13.30;68.50;;;;;;5134246;28;20078;-58
2022/01/29 08:54:24;;;;;;;3.53;1.85;;;13.40;67.50;;;;;;5134293;28;20455;-58
2022/01/29 08:56:52;;;;;;;2.22;1.23;;;13.40;68.00;;;;;;5134089;28;20047;-58
2022/01/29 08:59:20;;;;;;;2.13;1.40;;;13.50;67.10;;;;;;5118424;27;20370;-58
2022/01/29 09:01:47;;;;;;;3.03;1.80;;;13.40;67.00;;;;;;5120329;27;20057;-58
2022/01/29 09:04:15;;;;;;;4.50;2.40;;;13.40;67.20;;;;;;5138497;27;20054;-58
2022/01/29 09:06:43;;;;;;;2.35;1.50;;;13.40;68.40;;;;;;5138428;27;20036;-58
2022/01/29 09:09:10;;;;;;;3.45;1.73;;;13.60;67.70;;;;;;5138337;27;20036;-58
2022/01/29 09:11:38;;;;;;;2.25;1.35;;;13.40;66.60;;;;;;5138304;27;20074;-58
2022/01/29 09:14:05;;;;;;;3.47;1.55;;;13.40;65.60;;;;;;5138423;27;20043;-58
2022/01/29 09:16:33;;;;;;;2.65;1.50;;;13.30;66.10;;;;;;5138291;27;20077;-58
2022/01/29 09:19:00;;;;;;;3.22;1.42;;;13.40;67.20;;;;;;5120041;27;20035;-59
2022/01/29 09:21:28;;;;;;;2.83;1.40;;;13.20;68.60;;;;;;5119787;27;20066;-58
2022/01/29 09:23:56;;;;;;;2.63;1.58;;;13.20;67.50;;;;;;5137944;27;20054;-59
2022/01/29 09:26:23;;;;;;;2.28;1.40;;;13.30;67.20;;;;;;5137725;27;20050;-59
2022/01/29 09:28:51;;;;;;;3.70;1.52;;;13.40;66.60;;;;;;5137997;27;20040;-59
2022/01/29 09:31:19;;;;;;;2.42;1.50;;;13.50;68.10;;;;;;5138136;27;20039;-59
2022/01/29 09:33:46;;;;;;;4.20;2.08;;;13.70;68.30;;;;;;5137796;27;20039;-58
2022/01/29 09:36:14;;;;;;;3.40;2.17;;;13.70;68.50;;;;;;5138178;27;20039;-58
2022/01/29 09:38:42;;;;;;;4.13;1.95;;;13.80;69.20;;;;;;5137766;27;20054;-58
2022/01/29 09:41:10;;;;;;;5.28;1.58;;;13.60;67.90;;;;;;5119422;27;20035;-59
2022/01/29 09:43:37;;;;;;;2.85;1.70;;;13.50;67.40;;;;;;5137812;27;20139;-58
2022/01/29 09:46:06;;;;;;;7.28;2.13;;;13.50;66.70;;;;;;5119259;27;20041;-59
2022/01/29 09:48:34;;;;;;;4.70;1.33;;;13.20;67.50;;;;;;5137370;27;20550;-59
2022/01/29 09:51:01;;;;;;;4.35;1.65;;;13.30;68.20;;;;;;5118683;27;20409;-58
2022/01/29 09:53:29;;;;;;;3.28;1.75;;;13.50;66.60;;;;;;5116603;28;20393;-58
2022/01/29 09:55:57;;;;;;;8.10;3.42;;;13.60;67.20;;;;;;5117032;28;20047;-59
2022/01/29 09:58:24;;;;;;;4.40;1.50;;;13.80;68.60;;;;;;5116677;28;20044;-58
2022/01/29 10:00:52;;;;;;;4.95;2.05;;;13.90;68.40;;;;;;5098443;28;20046;-58
2022/01/29 10:03:20;;;;;;;2.80;1.50;;;13.80;64.50;;;;;;5116625;28;20036;-58
2022/01/29 10:05:53;;;;;;;2.90;1.95;;;13.80;65.30;;;;;;5098047;28;20056;-58
2022/01/29 10:08:22;;;;;;;5.82;2.35;;;13.70;65.10;;;;;;5115494;28;20044;-58
2022/01/29 10:10:54;;;;;;;2.80;1.52;;;13.60;65.90;;;;;;5097376;28;20043;-58
2022/01/29 10:13:29;;;;;;;5.38;1.88;;;13.50;65.40;;;;;;5098400;28;20071;-59
2022/01/29 10:16:15;;;;;;;5.32;2.40;;;13.50;65.30;;;;;;5116287;28;20406;-60
2022/01/29 10:18:47;;;;;;;4.38;1.75;;;13.50;65.90;;;;;;5098290;28;20054;-58
2022/01/29 10:21:23;;;;;;;6.53;2.55;;;13.30;65.60;;;;;;5116152;28;20449;-59
2022/01/29 10:24:04;;;;;;;4.35;2.63;;;13.50;67.50;;;;;;5116206;28;20043;-59
2022/01/29 10:26:37;;;;;;;3.92;1.80;;;13.30;67.10;;;;;;5097847;28;20115;-59
2022/01/29 10:29:07;;;;;;;3.22;1.50;;;13.30;66.30;;;;;;5115832;28;20048;-59
2022/01/29 10:31:49;;;;;;;4.13;1.50;;;13.20;64.90;;;;;;5116038;28;20043;-59
2022/01/29 10:34:25;;;;;;;3.58;2.30;;;13.20;65.20;;;;;;5116039;28;20067;-59
2022/01/29 10:37:14;;;;;;;3.03;1.55;;;13.20;66.40;;;;;;5115849;28;20093;-59
2022/01/29 10:39:48;;;;;;;2.13;1.58;;;13.30;66.30;;;;;;5111296;28;20131;-60
2022/01/29 10:42:36;;;;;;;1.50;1.17;;;13.30;66.10;;;;;;5105826;28;20531;-59
2022/01/29 10:45:07;;;;;;;4.18;1.98;;;13.30;66.60;;;;;;5077769;28;20127;-59
2022/01/29 10:47:55;;;;;;;3.33;1.30;;;13.40;66.90;;;;;;5101958;28;20373;-59
2022/01/29 10:50:24;;;;;;;4.20;1.90;;;13.20;65.50;;;;;;5120935;27;20130;-58
2022/01/29 10:52:51;;;;;;;2.83;1.80;;;13.20;65.80;;;;;;5082106;27;20043;-59
2022/01/29 10:55:19;;;;;;;5.90;1.58;;;13.30;66.60;;;;;;5115538;27;20492;-59
2022/01/29 10:57:48;;;;;;;4.22;1.80;;;12.90;66.60;;;;;;5134548;27;20050;-60
2022/01/29 11:00:18;;;;;;;9.45;2.10;;;12.90;68.10;;;;;;5097985;27;20046;-59
2022/01/29 11:02:46;;;;;;;4.18;1.60;;;12.80;66.10;;;;;;5128290;27;20043;-60
2022/01/29 11:05:14;;;;;;;6.93;2.13;;;12.90;68.30;;;;;;5114961;27;20039;-61
2022/01/29 11:07:50;;;;;;;4.07;1.50;;;12.80;66.70;;;;;;5134688;27;20114;-61
2022/01/29 11:10:19;;;;;;;5.00;2.05;;;13.00;67.40;;;;;;5133109;27;20112;-60
2022/01/29 11:12:48;;;;;;;2.60;1.60;;;13.20;67.80;;;;;;5118398;27;20047;-61
2022/01/29 11:15:19;;;;;;;4.68;2.20;;;13.30;65.40;;;;;;5128372;27;20031;-60
2022/01/29 11:17:48;;;;;;;4.20;2.45;;;13.20;65.50;;;;;;5133932;27;20131;-60
2022/01/29 11:20:17;;;;;;;4.65;2.70;;;13.00;64.10;;;;;;5097383;27;20043;-60
2022/01/29 11:22:47;;;;;;;2.72;2.15;;;13.00;65.10;;;;;;5132762;27;20122;-60
2022/01/29 11:25:22;;;;;;;4.72;1.60;;;13.10;65.00;;;;;;5114376;27;20487;-61
2022/01/29 11:28:19;;;;;;;3.40;1.58;;;13.00;65.20;;;;;;5115324;27;20035;-61
2022/01/29 11:31:16;;;;;;;3.72;1.42;;;12.80;66.30;;;;;;5107980;28;20059;-60
2022/01/29 11:33:59;;;;;;;6.15;2.65;;;13.00;65.90;;;;;;5109860;27;20035;-60
2022/01/29 11:36:50;;;;;;;3.25;1.52;;;13.10;65.80;;;;;;5134363;27;20050;-60
2022/01/29 11:39:22;;;;;;;2.25;1.27;;;13.10;66.80;;;;;;5113057;27;20070;-60
2022/01/29 11:42:15;;;;;;;1.70;1.15;;;13.30;66.80;;;;;;5133480;27;20063;-60
2022/01/29 11:44:44;;;;;;;4.32;2.00;;;13.30;65.60;;;;;;5113814;27;20101;-59
2022/01/29 11:47:45;;;;;;;5.35;2.60;;;13.50;68.10;;;;;;5115860;27;20083;-60
2022/01/29 11:50:18;;;;;;;4.60;2.90;;;13.70;66.30;;;;;;5123108;27;20104;-60
2022/01/29 11:52:58;;;;;;;7.38;4.40;;;13.40;65.70;;;;;;5133231;27;20371;-60
2022/01/29 11:55:44;;;;;;;4.97;2.30;;;13.00;65.40;;;;;;5128506;27;20024;-59
2022/01/29 11:58:24;;;;;;;5.87;3.37;;;13.00;66.50;;;;;;5112525;27;20415;-59
2022/01/29 12:00:54;;;;;;;4.75;2.75;;;13.10;69.30;;;;;;5133040;27;20493;-59
2022/01/29 12:03:34;;;;;;;4.22;2.60;;;13.20;69.20;;;;;;5131145;27;20035;-58
2022/01/29 12:06:09;;;;;;;4.43;3.13;;;13.20;69.20;;;;;;5111249;27;20560;-58
2022/01/29 12:08:57;;;;;;;7.25;3.78;;;13.30;70.10;;;;;;5114672;27;20067;-60
2022/01/29 12:11:25;;;;;;;5.65;2.70;;;13.20;65.60;;;;;;5121803;27;20031;-61
2022/01/29 12:14:11;;;;;;;4.38;2.67;;;13.10;65.70;;;;;;5104235;27;20043;-61
2022/01/29 12:16:59;;;;;;;4.70;1.80;;;13.10;66.20;;;;;;5114783;27;20043;-61
2022/01/29 12:19:41;;;;;;;1.98;1.40;;;13.00;66.20;;;;;;5132144;27;20031;-61
2022/01/29 12:22:28;;;;;;;4.22;2.53;;;13.00;66.80;;;;;;5103303;27;20047;-61
2022/01/29 12:25:01;;;;;;;5.60;1.95;;;12.90;67.60;;;;;;5087365;27;20050;-61
2022/01/29 12:27:46;;;;;;;3.75;1.88;;;12.80;66.00;;;;;;5114699;27;20107;-61
2022/01/29 12:30:36;;;;;;;4.82;1.95;;;12.80;67.20;;;;;;5097751;28;20401;-61
2022/01/29 12:33:10;;;;;;;4.82;2.67;;;13.00;68.40;;;;;;5120013;27;20046;-62
2022/01/29 12:35:42;;;;;;;6.45;2.38;;;13.00;68.00;;;;;;5091661;28;20047;-62
2022/01/29 12:38:13;;;;;;;2.92;2.03;;;13.00;67.80;;;;;;5125722;27;20070;-61
2022/01/29 12:41:09;;;;;;;2.70;1.70;;;13.10;67.90;;;;;;5114255;27;20053;-62
2022/01/29 12:43:51;;;;;;;4.57;2.58;;;13.10;68.90;;;;;;5112962;28;20055;-61
2022/01/29 12:46:20;;;;;;;5.80;3.60;;;13.10;68.30;;;;;;5132592;27;20039;-62
2022/01/29 12:49:06;;;;;;;5.50;3.03;;;13.30;68.60;;;;;;5093094;28;20378;-61
2022/01/29 12:51:35;;;;;;;5.75;3.15;;;13.30;68.00;;;;;;5111108;28;20455;-61
2022/01/29 12:54:07;;;;;;;6.93;2.75;;;13.30;68.10;;;;;;5111189;28;20040;-61
2022/01/29 12:56:37;;;;;;;4.25;2.45;;;13.10;67.40;;;;;;5112090;28;20502;-60
2022/01/29 12:59:07;;;;;;;4.50;2.35;;;13.10;67.80;;;;;;5083154;28;20122;-60
2022/01/29 13:01:37;;;;;;;3.88;2.55;;;12.80;67.40;;;;;;5111431;28;20486;-61
2022/01/29 13:04:07;;;;;;;5.65;3.45;;;12.70;68.20;;;;;;5108973;28;20177;-61
2022/01/29 13:06:35;;;;;;;7.07;3.63;;;12.70;68.80;;;;;;5110362;28;20040;-61
2022/01/29 13:09:24;;;;;;;4.85;2.30;;;12.70;68.70;;;;;;5110630;28;20058;-62
2022/01/29 13:12:04;;;;;;;4.60;2.08;;;12.50;68.30;;;;;;5084405;28;20465;-62
2022/01/29 13:14:33;;;;;;;3.55;2.35;;;12.50;68.20;;;;;;5094090;28;20047;-61
2022/01/29 13:17:06;;;;;;;3.10;2.05;;;12.50;68.80;;;;;;5093577;28;20036;-61